sensor_id;sensor_type;location;lat;lon;timestamp;P1;durP1;ratioP1;P2;durP2;ratioP2
9643;SDS011;4860;50.900;4.720;2023-04-26T00:00:44;0.60;;;0.60;;
9643;SDS011;4860;50.900;4.720;2023-04-26T00:03:11;0.60;;;0.60;;
9643;SDS011;4860;50.900;4.720;2023-04-26T00:05:37;0.50;;;0.50;;
9643;SDS011;4860;50.900;4.720;2023-04-26T00:08:04;0.50;;;0.50;;
9643;SDS011;4860;50.900;4.720;2023-04-26T00:10:30;0.60;;;0.60;;
9643;SDS011;4860;50.900;4.720;2023-04-26T00:12:56;0.60;;;0.60;;
9643;SDS011;4860;50.900;4.720;2023-04-26T00:15:22;0.50;;;0.50;;
9643;SDS011;4860;50.900;4.720;2023-04-26T00:17:48;0.63;;;0.63;;
9643;SDS011;4860;50.900;4.720;2023-04-26T00:20:15;0.50;;;0.50;;
9643;SDS011;4860;50.900;4.720;2023-04-26T00:22:41;0.40;;;0.40;;
9643;SDS011;4860;50.900;4.720;2023-04-26T00:25:07;0.60;;;0.60;;
9643;SDS011;4860;50.900;4.720;2023-04-26T00:27:34;0.60;;;0.60;;
9643;SDS011;4860;50.900;4.720;2023-04-26T00:30:00;0.60;;;0.60;;
9643;SDS011;4860;50.900;4.720;2023-04-26T00:32:26;0.50;;;0.50;;
9643;SDS011;4860;50.900;4.720;2023-04-26T00:34:52;0.50;;;0.50;;
9643;SDS011;4860;50.900;4.720;2023-04-26T00:37:18;0.60;;;0.60;;
9643;SDS011;4860;50.900;4.720;2023-04-26T00:39:45;0.60;;;0.60;;
9643;SDS011;4860;50.900;4.720;2023-04-26T00:42:11;0.60;;;0.60;;
9643;SDS011;4860;50.900;4.720;2023-04-26T00:44:37;0.60;;;0.60;;
9643;SDS011;4860;50.900;4.720;2023-04-26T00:47:04;0.50;;;0.50;;
9643;SDS011;4860;50.900;4.720;2023-04-26T00:49:30;0.50;;;0.50;;
9643;SDS011;4860;50.900;4.720;2023-04-26T00:51:56;0.50;;;0.50;;
9643;SDS011;4860;50.900;4.720;2023-04-26T00:54:23;0.53;;;0.53;;
9643;SDS011;4860;50.900;4.720;2023-04-26T00:56:49;0.60;;;0.60;;
9643;SDS011;4860;50.900;4.720;2023-04-26T00:59:18;0.50;;;0.50;;
9643;SDS011;4860;50.900;4.720;2023-04-26T01:01:44;0.60;;;0.60;;
9643;SDS011;4860;50.900;4.720;2023-04-26T01:04:10;0.60;;;0.60;;
9643;SDS011;4860;50.900;4.720;2023-04-26T01:06:38;0.60;;;0.60;;
9643;SDS011;4860;50.900;4.720;2023-04-26T01:09:05;0.60;;;0.60;;
9643;SDS011;4860;50.900;4.720;2023-04-26T01:11:33;0.50;;;0.50;;
9643;SDS011;4860;50.900;4.720;2023-04-26T01:14:00;0.60;;;0.60;;
9643;SDS011;4860;50.900;4.720;2023-04-26T01:16:26;0.53;;;0.53;;
9643;SDS011;4860;50.900;4.720;2023-04-26T01:18:53;0.50;;;0.50;;
9643;SDS011;4860;50.900;4.720;2023-04-26T01:21:19;0.50;;;0.50;;
9643;SDS011;4860;50.900;4.720;2023-04-26T01:23:50;0.60;;;0.60;;
9643;SDS011;4860;50.900;4.720;2023-04-26T01:26:16;0.50;;;0.50;;
9643;SDS011;4860;50.900;4.720;2023-04-26T01:28:43;0.57;;;0.57;;
9643;SDS011;4860;50.900;4.720;2023-04-26T01:31:13;0.60;;;0.60;;
9643;SDS011;4860;50.900;4.720;2023-04-26T01:33:40;0.50;;;0.50;;
9643;SDS011;4860;50.900;4.720;2023-04-26T01:36:07;0.50;;;0.50;;
9643;SDS011;4860;50.900;4.720;2023-04-26T01:38:34;0.60;;;0.60;;
9643;SDS011;4860;50.900;4.720;2023-04-26T01:41:00;0.60;;;0.60;;
9643;SDS011;4860;50.900;4.720;2023-04-26T01:43:27;0.57;;;0.57;;
9643;SDS011;4860;50.900;4.720;2023-04-26T01:45:53;0.50;;;0.50;;
9643;SDS011;4860;50.900;4.720;2023-04-26T01:48:19;0.60;;;0.60;;
9643;SDS011;4860;50.900;4.720;2023-04-26T01:50:45;0.70;;;0.70;;
9643;SDS011;4860;50.900;4.720;2023-04-26T01:53:12;0.60;;;0.60;;
9643;SDS011;4860;50.900;4.720;2023-04-26T01:55:38;0.60;;;0.60;;
9643;SDS011;4860;50.900;4.720;2023-04-26T01:58:04;0.60;;;0.60;;
9643;SDS011;4860;50.900;4.720;2023-04-26T02:00:30;0.57;;;0.57;;
9643;SDS011;4860;50.900;4.720;2023-04-26T02:02:57;0.60;;;0.60;;
9643;SDS011;4860;50.900;4.720;2023-04-26T02:05:23;0.70;;;0.70;;
9643;SDS011;4860;50.900;4.720;2023-04-26T02:07:49;0.50;;;0.50;;
9643;SDS011;4860;50.900;4.720;2023-04-26T02:10:16;0.60;;;0.60;;
9643;SDS011;4860;50.900;4.720;2023-04-26T02:12:42;0.60;;;0.60;;
9643;SDS011;4860;50.900;4.720;2023-04-26T02:15:08;0.60;;;0.60;;
9643;SDS011;4860;50.900;4.720;2023-04-26T02:17:34;0.50;;;0.50;;
9643;SDS011;4860;50.900;4.720;2023-04-26T02:20:02;0.60;;;0.60;;
9643;SDS011;4860;50.900;4.720;2023-04-26T02:22:28;0.70;;;0.70;;
9643;SDS011;4860;50.900;4.720;2023-04-26T02:24:55;0.50;;;0.50;;
9643;SDS011;4860;50.900;4.720;2023-04-26T02:27:21;0.53;;;0.53;;
9643;SDS011;4860;50.900;4.720;2023-04-26T02:29:47;0.60;;;0.60;;
9643;SDS011;4860;50.900;4.720;2023-04-26T02:32:14;0.53;;;0.53;;
9643;SDS011;4860;50.900;4.720;2023-04-26T02:34:41;0.60;;;0.60;;
9643;SDS011;4860;50.900;4.720;2023-04-26T02:37:08;0.60;;;0.60;;
9643;SDS011;4860;50.900;4.720;2023-04-26T02:39:34;0.60;;;0.60;;
9643;SDS011;4860;50.900;4.720;2023-04-26T02:42:00;0.50;;;0.50;;
9643;SDS011;4860;50.900;4.720;2023-04-26T02:44:30;0.60;;;0.60;;
9643;SDS011;4860;50.900;4.720;2023-04-26T02:46:56;0.53;;;0.53;;
9643;SDS011;4860;50.900;4.720;2023-04-26T02:49:22;0.70;;;0.70;;
9643;SDS011;4860;50.900;4.720;2023-04-26T02:51:48;0.50;;;0.50;;
9643;SDS011;4860;50.900;4.720;2023-04-26T02:54:15;0.50;;;0.50;;
9643;SDS011;4860;50.900;4.720;2023-04-26T02:56:41;0.60;;;0.60;;
9643;SDS011;4860;50.900;4.720;2023-04-26T02:59:07;0.60;;;0.60;;
9643;SDS011;4860;50.900;4.720;2023-04-26T03:01:33;0.50;;;0.50;;
9643;SDS011;4860;50.900;4.720;2023-04-26T03:03:59;0.50;;;0.50;;
9643;SDS011;4860;50.900;4.720;2023-04-26T03:06:26;0.50;;;0.50;;
9643;SDS011;4860;50.900;4.720;2023-04-26T03:08:53;0.50;;;0.50;;
9643;SDS011;4860;50.900;4.720;2023-04-26T03:11:20;0.60;;;0.60;;
9643;SDS011;4860;50.900;4.720;2023-04-26T03:13:46;0.60;;;0.60;;
9643;SDS011;4860;50.900;4.720;2023-04-26T03:16:12;0.60;;;0.60;;
9643;SDS011;4860;50.900;4.720;2023-04-26T03:18:39;0.60;;;0.60;;
9643;SDS011;4860;50.900;4.720;2023-04-26T03:21:05;0.60;;;0.60;;
9643;SDS011;4860;50.900;4.720;2023-04-26T03:23:31;0.50;;;0.50;;
9643;SDS011;4860;50.900;4.720;2023-04-26T03:25:58;0.63;;;0.63;;
9643;SDS011;4860;50.900;4.720;2023-04-26T03:28:24;0.60;;;0.60;;
9643;SDS011;4860;50.900;4.720;2023-04-26T03:30:50;0.60;;;0.60;;
9643;SDS011;4860;50.900;4.720;2023-04-26T03:33:16;0.60;;;0.60;;
9643;SDS011;4860;50.900;4.720;2023-04-26T03:35:42;0.60;;;0.60;;
9643;SDS011;4860;50.900;4.720;2023-04-26T03:38:09;0.63;;;0.63;;
9643;SDS011;4860;50.900;4.720;2023-04-26T03:40:35;0.70;;;0.70;;
9643;SDS011;4860;50.900;4.720;2023-04-26T03:43:01;0.70;;;0.70;;
9643;SDS011;4860;50.900;4.720;2023-04-26T03:45:27;0.60;;;0.60;;
9643;SDS011;4860;50.900;4.720;2023-04-26T03:47:54;0.60;;;0.60;;
9643;SDS011;4860;50.900;4.720;2023-04-26T03:50:20;0.60;;;0.60;;
9643;SDS011;4860;50.900;4.720;2023-04-26T03:52:46;0.60;;;0.60;;
9643;SDS011;4860;50.900;4.720;2023-04-26T03:55:13;0.53;;;0.53;;
9643;SDS011;4860;50.900;4.720;2023-04-26T03:57:39;0.60;;;0.60;;
9643;SDS011;4860;50.900;4.720;2023-04-26T04:00:05;0.53;;;0.53;;
9643;SDS011;4860;50.900;4.720;2023-04-26T04:02:38;0.60;;;0.60;;
9643;SDS011;4860;50.900;4.720;2023-04-26T04:05:04;0.60;;;0.60;;
9643;SDS011;4860;50.900;4.720;2023-04-26T04:07:30;0.50;;;0.50;;
9643;SDS011;4860;50.900;4.720;2023-04-26T04:10:00;0.60;;;0.60;;
9643;SDS011;4860;50.900;4.720;2023-04-26T04:12:26;0.60;;;0.60;;
9643;SDS011;4860;50.900;4.720;2023-04-26T04:14:52;0.60;;;0.60;;
9643;SDS011;4860;50.900;4.720;2023-04-26T04:17:18;0.60;;;0.60;;
9643;SDS011;4860;50.900;4.720;2023-04-26T04:19:45;0.60;;;0.60;;
9643;SDS011;4860;50.900;4.720;2023-04-26T04:22:11;0.60;;;0.60;;
9643;SDS011;4860;50.900;4.720;2023-04-26T04:24:37;0.60;;;0.60;;
9643;SDS011;4860;50.900;4.720;2023-04-26T04:27:03;0.60;;;0.60;;
9643;SDS011;4860;50.900;4.720;2023-04-26T04:29:29;0.60;;;0.60;;
9643;SDS011;4860;50.900;4.720;2023-04-26T04:31:57;0.60;;;0.60;;
9643;SDS011;4860;50.900;4.720;2023-04-26T04:34:23;0.60;;;0.60;;
9643;SDS011;4860;50.900;4.720;2023-04-26T04:36:50;0.50;;;0.50;;
9643;SDS011;4860;50.900;4.720;2023-04-26T04:39:16;0.60;;;0.60;;
9643;SDS011;4860;50.900;4.720;2023-04-26T04:41:43;0.53;;;0.53;;
9643;SDS011;4860;50.900;4.720;2023-04-26T04:44:12;0.50;;;0.50;;
9643;SDS011;4860;50.900;4.720;2023-04-26T04:46:40;0.50;;;0.50;;
9643;SDS011;4860;50.900;4.720;2023-04-26T04:49:06;0.50;;;0.50;;
9643;SDS011;4860;50.900;4.720;2023-04-26T04:51:33;0.60;;;0.60;;
9643;SDS011;4860;50.900;4.720;2023-04-26T04:54:16;0.50;;;0.50;;
9643;SDS011;4860;50.900;4.720;2023-04-26T04:56:43;0.60;;;0.60;;
9643;SDS011;4860;50.900;4.720;2023-04-26T04:59:09;0.50;;;0.50;;
9643;SDS011;4860;50.900;4.720;2023-04-26T05:01:36;0.60;;;0.60;;
9643;SDS011;4860;50.900;4.720;2023-04-26T05:04:03;0.60;;;0.60;;
9643;SDS011;4860;50.900;4.720;2023-04-26T05:06:29;0.50;;;0.50;;
9643;SDS011;4860;50.900;4.720;2023-04-26T05:08:58;0.60;;;0.60;;
9643;SDS011;4860;50.900;4.720;2023-04-26T05:11:25;0.50;;;0.50;;
9643;SDS011;4860;50.900;4.720;2023-04-26T05:13:52;0.47;;;0.47;;
9643;SDS011;4860;50.900;4.720;2023-04-26T05:16:18;0.50;;;0.50;;
9643;SDS011;4860;50.900;4.720;2023-04-26T05:18:44;0.53;;;0.53;;
9643;SDS011;4860;50.900;4.720;2023-04-26T05:21:10;0.60;;;0.60;;
9643;SDS011;4860;50.900;4.720;2023-04-26T05:23:37;0.60;;;0.60;;
9643;SDS011;4860;50.900;4.720;2023-04-26T05:26:03;0.60;;;0.60;;
9643;SDS011;4860;50.900;4.720;2023-04-26T05:28:30;0.50;;;0.50;;
9643;SDS011;4860;50.900;4.720;2023-04-26T05:30:56;0.60;;;0.60;;
9643;SDS011;4860;50.900;4.720;2023-04-26T05:33:23;0.50;;;0.50;;
9643;SDS011;4860;50.900;4.720;2023-04-26T05:35:49;0.60;;;0.60;;
9643;SDS011;4860;50.900;4.720;2023-04-26T05:38:18;0.50;;;0.50;;
9643;SDS011;4860;50.900;4.720;2023-04-26T05:40:44;0.50;;;0.50;;
9643;SDS011;4860;50.900;4.720;2023-04-26T05:43:12;0.50;;;0.50;;
9643;SDS011;4860;50.900;4.720;2023-04-26T05:45:38;0.40;;;0.40;;
9643;SDS011;4860;50.900;4.720;2023-04-26T05:48:05;0.57;;;0.57;;
9643;SDS011;4860;50.900;4.720;2023-04-26T05:50:31;0.47;;;0.47;;
9643;SDS011;4860;50.900;4.720;2023-04-26T05:52:57;0.50;;;0.50;;
9643;SDS011;4860;50.900;4.720;2023-04-26T05:55:23;0.50;;;0.50;;
9643;SDS011;4860;50.900;4.720;2023-04-26T05:57:50;0.60;;;0.60;;
9643;SDS011;4860;50.900;4.720;2023-04-26T06:00:16;0.50;;;0.50;;
9643;SDS011;4860;50.900;4.720;2023-04-26T06:02:44;0.50;;;0.50;;
9643;SDS011;4860;50.900;4.720;2023-04-26T06:05:11;0.50;;;0.50;;
9643;SDS011;4860;50.900;4.720;2023-04-26T06:07:37;0.40;;;0.40;;
9643;SDS011;4860;50.900;4.720;2023-04-26T06:10:03;0.40;;;0.40;;
9643;SDS011;4860;50.900;4.720;2023-04-26T06:12:29;0.43;;;0.43;;
9643;SDS011;4860;50.900;4.720;2023-04-26T06:14:56;0.40;;;0.40;;
9643;SDS011;4860;50.900;4.720;2023-04-26T06:17:22;0.40;;;0.40;;
9643;SDS011;4860;50.900;4.720;2023-04-26T06:19:49;0.40;;;0.40;;
9643;SDS011;4860;50.900;4.720;2023-04-26T06:22:16;0.40;;;0.40;;
9643;SDS011;4860;50.900;4.720;2023-04-26T06:24:43;0.40;;;0.40;;
9643;SDS011;4860;50.900;4.720;2023-04-26T06:27:09;0.40;;;0.40;;
9643;SDS011;4860;50.900;4.720;2023-04-26T06:29:35;0.40;;;0.40;;
9643;SDS011;4860;50.900;4.720;2023-04-26T06:32:01;0.40;;;0.40;;
9643;SDS011;4860;50.900;4.720;2023-04-26T06:34:28;0.40;;;0.40;;
9643;SDS011;4860;50.900;4.720;2023-04-26T06:36:54;0.37;;;0.37;;
9643;SDS011;4860;50.900;4.720;2023-04-26T06:39:20;0.40;;;0.40;;
9643;SDS011;4860;50.900;4.720;2023-04-26T06:41:47;0.33;;;0.33;;
9643;SDS011;4860;50.900;4.720;2023-04-26T06:44:13;0.40;;;0.40;;
9643;SDS011;4860;50.900;4.720;2023-04-26T06:46:39;0.33;;;0.33;;
9643;SDS011;4860;50.900;4.720;2023-04-26T06:49:06;0.40;;;0.40;;
9643;SDS011;4860;50.900;4.720;2023-04-26T06:51:32;0.40;;;0.40;;
9643;SDS011;4860;50.900;4.720;2023-04-26T06:53:59;0.40;;;0.40;;
9643;SDS011;4860;50.900;4.720;2023-04-26T06:56:25;0.40;;;0.40;;
9643;SDS011;4860;50.900;4.720;2023-04-26T06:59:04;0.30;;;0.30;;
9643;SDS011;4860;50.900;4.720;2023-04-26T07:01:31;0.40;;;0.40;;
9643;SDS011;4860;50.900;4.720;2023-04-26T07:04:01;0.40;;;0.40;;
9643;SDS011;4860;50.900;4.720;2023-04-26T07:06:28;0.40;;;0.40;;
9643;SDS011;4860;50.900;4.720;2023-04-26T07:08:58;0.37;;;0.37;;
9643;SDS011;4860;50.900;4.720;2023-04-26T07:11:25;0.40;;;0.40;;
9643;SDS011;4860;50.900;4.720;2023-04-26T07:13:51;0.40;;;0.40;;
9643;SDS011;4860;50.900;4.720;2023-04-26T07:16:17;0.30;;;0.30;;
9643;SDS011;4860;50.900;4.720;2023-04-26T07:18:43;0.30;;;0.30;;
9643;SDS011;4860;50.900;4.720;2023-04-26T07:21:09;0.30;;;0.30;;
9643;SDS011;4860;50.900;4.720;2023-04-26T07:23:35;0.40;;;0.40;;
9643;SDS011;4860;50.900;4.720;2023-04-26T07:26:02;0.30;;;0.30;;
9643;SDS011;4860;50.900;4.720;2023-04-26T07:28:32;0.30;;;0.30;;
9643;SDS011;4860;50.900;4.720;2023-04-26T07:30:59;0.30;;;0.30;;
9643;SDS011;4860;50.900;4.720;2023-04-26T07:33:25;0.20;;;0.20;;
9643;SDS011;4860;50.900;4.720;2023-04-26T07:35:52;0.30;;;0.30;;
9643;SDS011;4860;50.900;4.720;2023-04-26T07:38:20;0.30;;;0.30;;
9643;SDS011;4860;50.900;4.720;2023-04-26T07:40:46;0.20;;;0.20;;
9643;SDS011;4860;50.900;4.720;2023-04-26T07:43:12;0.30;;;0.30;;
9643;SDS011;4860;50.900;4.720;2023-04-26T07:45:40;0.25;;;0.25;;
9643;SDS011;4860;50.900;4.720;2023-04-26T07:48:07;0.20;;;0.20;;
9643;SDS011;4860;50.900;4.720;2023-04-26T07:50:34;0.30;;;0.30;;
9643;SDS011;4860;50.900;4.720;2023-04-26T07:53:00;0.30;;;0.30;;
9643;SDS011;4860;50.900;4.720;2023-04-26T07:55:26;0.30;;;0.30;;
9643;SDS011;4860;50.900;4.720;2023-04-26T07:57:52;0.20;;;0.20;;
9643;SDS011;4860;50.900;4.720;2023-04-26T08:00:19;0.30;;;0.30;;
9643;SDS011;4860;50.900;4.720;2023-04-26T08:02:47;0.22;;;0.22;;
9643;SDS011;4860;50.900;4.720;2023-04-26T08:05:13;0.20;;;0.20;;
9643;SDS011;4860;50.900;4.720;2023-04-26T08:07:40;0.20;;;0.20;;
9643;SDS011;4860;50.900;4.720;2023-04-26T08:10:06;0.20;;;0.20;;
9643;SDS011;4860;50.900;4.720;2023-04-26T08:12:33;0.20;;;0.20;;
9643;SDS011;4860;50.900;4.720;2023-04-26T08:15:00;0.20;;;0.20;;
9643;SDS011;4860;50.900;4.720;2023-04-26T08:17:28;0.20;;;0.20;;
9643;SDS011;4860;50.900;4.720;2023-04-26T08:19:55;0.22;;;0.22;;
9643;SDS011;4860;50.900;4.720;2023-04-26T08:22:21;0.20;;;0.20;;
9643;SDS011;4860;50.900;4.720;2023-04-26T08:24:53;0.20;;;0.20;;
9643;SDS011;4860;50.900;4.720;2023-04-26T08:27:19;0.30;;;0.30;;
9643;SDS011;4860;50.900;4.720;2023-04-26T08:29:46;0.20;;;0.20;;
9643;SDS011;4860;50.900;4.720;2023-04-26T08:32:12;0.20;;;0.20;;
9643;SDS011;4860;50.900;4.720;2023-04-26T08:34:38;0.30;;;0.30;;
9643;SDS011;4860;50.900;4.720;2023-04-26T08:37:08;0.20;;;0.20;;
9643;SDS011;4860;50.900;4.720;2023-04-26T08:39:34;0.30;;;0.30;;
9643;SDS011;4860;50.900;4.720;2023-04-26T08:42:04;0.20;;;0.20;;
9643;SDS011;4860;50.900;4.720;2023-04-26T08:44:33;0.20;;;0.20;;
9643;SDS011;4860;50.900;4.720;2023-04-26T08:47:05;0.20;;;0.20;;
9643;SDS011;4860;50.900;4.720;2023-04-26T08:49:42;0.28;;;0.28;;
9643;SDS011;4860;50.900;4.720;2023-04-26T08:52:09;0.30;;;0.30;;
9643;SDS011;4860;50.900;4.720;2023-04-26T08:54:36;0.30;;;0.30;;
9643;SDS011;4860;50.900;4.720;2023-04-26T08:57:02;0.20;;;0.20;;
9643;SDS011;4860;50.900;4.720;2023-04-26T08:59:29;0.30;;;0.30;;
9643;SDS011;4860;50.900;4.720;2023-04-26T09:01:55;0.20;;;0.20;;
9643;SDS011;4860;50.900;4.720;2023-04-26T09:04:22;0.25;;;0.25;;
9643;SDS011;4860;50.900;4.720;2023-04-26T09:06:48;0.20;;;0.20;;
9643;SDS011;4860;50.900;4.720;2023-04-26T09:09:16;0.20;;;0.20;;
9643;SDS011;4860;50.900;4.720;2023-04-26T09:14:18;0.20;;;0.20;;
9643;SDS011;4860;50.900;4.720;2023-04-26T09:16:44;0.20;;;0.20;;
9643;SDS011;4860;50.900;4.720;2023-04-26T09:19:10;0.20;;;0.20;;
9643;SDS011;4860;50.900;4.720;2023-04-26T09:21:43;0.20;;;0.20;;
9643;SDS011;4860;50.900;4.720;2023-04-26T09:24:10;0.20;;;0.20;;
9643;SDS011;4860;50.900;4.720;2023-04-26T09:26:37;0.20;;;0.20;;
9643;SDS011;4860;50.900;4.720;2023-04-26T09:29:10;0.20;;;0.20;;
9643;SDS011;4860;50.900;4.720;2023-04-26T09:31:41;0.10;;;0.10;;
9643;SDS011;4860;50.900;4.720;2023-04-26T09:34:09;0.10;;;0.10;;
9643;SDS011;4860;50.900;4.720;2023-04-26T09:39:40;0.20;;;0.20;;
9643;SDS011;4860;50.900;4.720;2023-04-26T09:42:07;0.20;;;0.20;;
9643;SDS011;4860;50.900;4.720;2023-04-26T09:44:34;0.10;;;0.10;;
9643;SDS011;4860;50.900;4.720;2023-04-26T09:47:01;0.20;;;0.20;;
9643;SDS011;4860;50.900;4.720;2023-04-26T09:49:29;0.20;;;0.20;;
9643;SDS011;4860;50.900;4.720;2023-04-26T09:51:59;0.20;;;0.20;;
9643;SDS011;4860;50.900;4.720;2023-04-26T09:57:03;0.20;;;0.20;;
9643;SDS011;4860;50.900;4.720;2023-04-26T09:59:46;0.20;;;0.20;;
9643;SDS011;4860;50.900;4.720;2023-04-26T10:02:13;0.20;;;0.20;;
9643;SDS011;4860;50.900;4.720;2023-04-26T10:04:41;0.20;;;0.20;;
9643;SDS011;4860;50.900;4.720;2023-04-26T10:07:08;0.10;;;0.10;;
9643;SDS011;4860;50.900;4.720;2023-04-26T10:09:34;0.10;;;0.10;;
9643;SDS011;4860;50.900;4.720;2023-04-26T10:12:00;0.10;;;0.10;;
9643;SDS011;4860;50.900;4.720;2023-04-26T10:14:28;0.10;;;0.10;;
9643;SDS011;4860;50.900;4.720;2023-04-26T10:16:55;0.10;;;0.10;;
9643;SDS011;4860;50.900;4.720;2023-04-26T10:19:21;0.10;;;0.10;;
9643;SDS011;4860;50.900;4.720;2023-04-26T10:21:48;0.10;;;0.10;;
9643;SDS011;4860;50.900;4.720;2023-04-26T10:24:16;0.17;;;0.17;;
9643;SDS011;4860;50.900;4.720;2023-04-26T10:26:52;0.10;;;0.10;;
9643;SDS011;4860;50.900;4.720;2023-04-26T10:29:21;0.10;;;0.10;;
9643;SDS011;4860;50.900;4.720;2023-04-26T10:34:26;0.10;;;0.10;;
9643;SDS011;4860;50.900;4.720;2023-04-26T10:37:05;0.20;;;0.20;;
9643;SDS011;4860;50.900;4.720;2023-04-26T10:39:33;0.10;;;0.10;;
9643;SDS011;4860;50.900;4.720;2023-04-26T10:44:49;0.10;;;0.10;;
9643;SDS011;4860;50.900;4.720;2023-04-26T10:49:48;0.20;;;0.20;;
9643;SDS011;4860;50.900;4.720;2023-04-26T10:52:18;0.20;;;0.20;;
9643;SDS011;4860;50.900;4.720;2023-04-26T10:54:46;0.20;;;0.20;;
9643;SDS011;4860;50.900;4.720;2023-04-26T10:57:13;0.10;;;0.10;;
9643;SDS011;4860;50.900;4.720;2023-04-26T10:59:39;0.10;;;0.10;;
9643;SDS011;4860;50.900;4.720;2023-04-26T11:02:09;0.20;;;0.20;;
9643;SDS011;4860;50.900;4.720;2023-04-26T11:04:51;0.20;;;0.20;;
9643;SDS011;4860;50.900;4.720;2023-04-26T11:07:34;0.10;;;0.10;;
9643;SDS011;4860;50.900;4.720;2023-04-26T11:10:01;0.10;;;0.10;;
9643;SDS011;4860;50.900;4.720;2023-04-26T11:12:28;0.20;;;0.20;;
9643;SDS011;4860;50.900;4.720;2023-04-26T11:14:54;0.20;;;0.20;;
9643;SDS011;4860;50.900;4.720;2023-04-26T11:17:20;0.20;;;0.20;;
9643;SDS011;4860;50.900;4.720;2023-04-26T11:19:47;0.20;;;0.20;;
9643;SDS011;4860;50.900;4.720;2023-04-26T11:22:13;0.20;;;0.20;;
9643;SDS011;4860;50.900;4.720;2023-04-26T11:24:39;0.10;;;0.10;;
9643;SDS011;4860;50.900;4.720;2023-04-26T11:27:08;0.20;;;0.20;;
9643;SDS011;4860;50.900;4.720;2023-04-26T11:29:35;0.20;;;0.20;;
9643;SDS011;4860;50.900;4.720;2023-04-26T11:32:01;0.20;;;0.20;;
9643;SDS011;4860;50.900;4.720;2023-04-26T11:34:34;0.10;;;0.10;;
9643;SDS011;4860;50.900;4.720;2023-04-26T11:37:01;0.15;;;0.15;;
9643;SDS011;4860;50.900;4.720;2023-04-26T11:39:35;0.20;;;0.20;;
9643;SDS011;4860;50.900;4.720;2023-04-26T11:42:08;0.10;;;0.10;;
9643;SDS011;4860;50.900;4.720;2023-04-26T11:44:35;0.10;;;0.10;;
9643;SDS011;4860;50.900;4.720;2023-04-26T11:47:01;0.20;;;0.20;;
9643;SDS011;4860;50.900;4.720;2023-04-26T11:49:28;0.20;;;0.20;;
9643;SDS011;4860;50.900;4.720;2023-04-26T11:51:55;0.15;;;0.15;;
9643;SDS011;4860;50.900;4.720;2023-04-26T11:56:55;0.20;;;0.20;;
9643;SDS011;4860;50.900;4.720;2023-04-26T11:59:25;0.15;;;0.15;;
9643;SDS011;4860;50.900;4.720;2023-04-26T12:01:51;0.20;;;0.20;;
9643;SDS011;4860;50.900;4.720;2023-04-26T12:04:17;0.20;;;0.20;;
9643;SDS011;4860;50.900;4.720;2023-04-26T12:06:44;0.10;;;0.10;;
9643;SDS011;4860;50.900;4.720;2023-04-26T12:09:11;0.20;;;0.20;;
9643;SDS011;4860;50.900;4.720;2023-04-26T12:11:38;0.13;;;0.13;;
9643;SDS011;4860;50.900;4.720;2023-04-26T12:14:04;0.20;;;0.20;;
9643;SDS011;4860;50.900;4.720;2023-04-26T12:16:34;0.10;;;0.10;;
9643;SDS011;4860;50.900;4.720;2023-04-26T12:19:03;0.10;;;0.10;;
9643;SDS011;4860;50.900;4.720;2023-04-26T12:21:38;0.10;;;0.10;;
9643;SDS011;4860;50.900;4.720;2023-04-26T12:24:05;0.10;;;0.10;;
9643;SDS011;4860;50.900;4.720;2023-04-26T12:26:41;0.10;;;0.10;;
9643;SDS011;4860;50.900;4.720;2023-04-26T12:29:08;0.10;;;0.10;;
9643;SDS011;4860;50.900;4.720;2023-04-26T12:31:34;0.20;;;0.20;;
9643;SDS011;4860;50.900;4.720;2023-04-26T12:34:01;0.20;;;0.20;;
9643;SDS011;4860;50.900;4.720;2023-04-26T12:36:27;0.10;;;0.10;;
9643;SDS011;4860;50.900;4.720;2023-04-26T12:38:53;0.10;;;0.10;;
9643;SDS011;4860;50.900;4.720;2023-04-26T12:41:20;0.10;;;0.10;;
9643;SDS011;4860;50.900;4.720;2023-04-26T12:43:47;0.10;;;0.10;;
9643;SDS011;4860;50.900;4.720;2023-04-26T12:46:13;0.10;;;0.10;;
9643;SDS011;4860;50.900;4.720;2023-04-26T12:48:39;0.00;;;0.00;;
9643;SDS011;4860;50.900;4.720;2023-04-26T12:51:05;0.10;;;0.10;;
9643;SDS011;4860;50.900;4.720;2023-04-26T12:53:31;0.10;;;0.10;;
9643;SDS011;4860;50.900;4.720;2023-04-26T12:55:58;0.10;;;0.10;;
9643;SDS011;4860;50.900;4.720;2023-04-26T12:58:24;0.10;;;0.10;;
9643;SDS011;4860;50.900;4.720;2023-04-26T13:00:50;0.20;;;0.20;;
9643;SDS011;4860;50.900;4.720;2023-04-26T13:03:17;0.10;;;0.10;;
9643;SDS011;4860;50.900;4.720;2023-04-26T13:05:43;0.10;;;0.10;;
9643;SDS011;4860;50.900;4.720;2023-04-26T13:08:09;0.20;;;0.20;;
9643;SDS011;4860;50.900;4.720;2023-04-26T13:10:36;0.10;;;0.10;;
9643;SDS011;4860;50.900;4.720;2023-04-26T13:13:02;0.10;;;0.10;;
9643;SDS011;4860;50.900;4.720;2023-04-26T13:15:28;0.20;;;0.20;;
9643;SDS011;4860;50.900;4.720;2023-04-26T13:17:54;0.10;;;0.10;;
9643;SDS011;4860;50.900;4.720;2023-04-26T13:20:21;0.10;;;0.10;;
9643;SDS011;4860;50.900;4.720;2023-04-26T13:22:47;0.10;;;0.10;;
9643;SDS011;4860;50.900;4.720;2023-04-26T13:25:15;0.10;;;0.10;;
9643;SDS011;4860;50.900;4.720;2023-04-26T13:27:43;0.20;;;0.20;;
9643;SDS011;4860;50.900;4.720;2023-04-26T13:30:10;0.10;;;0.10;;
9643;SDS011;4860;50.900;4.720;2023-04-26T13:32:36;0.10;;;0.10;;
9643;SDS011;4860;50.900;4.720;2023-04-26T13:35:02;0.10;;;0.10;;
9643;SDS011;4860;50.900;4.720;2023-04-26T13:37:29;0.10;;;0.10;;
9643;SDS011;4860;50.900;4.720;2023-04-26T13:39:55;0.10;;;0.10;;
9643;SDS011;4860;50.900;4.720;2023-04-26T13:42:22;0.05;;;0.05;;
9643;SDS011;4860;50.900;4.720;2023-04-26T13:44:49;0.10;;;0.10;;
9643;SDS011;4860;50.900;4.720;2023-04-26T13:47:15;0.10;;;0.10;;
9643;SDS011;4860;50.900;4.720;2023-04-26T13:49:42;0.10;;;0.10;;
9643;SDS011;4860;50.900;4.720;2023-04-26T13:52:09;0.10;;;0.10;;
9643;SDS011;4860;50.900;4.720;2023-04-26T13:54:36;0.10;;;0.10;;
9643;SDS011;4860;50.900;4.720;2023-04-26T13:57:04;0.10;;;0.10;;
9643;SDS011;4860;50.900;4.720;2023-04-26T13:59:30;0.10;;;0.10;;
9643;SDS011;4860;50.900;4.720;2023-04-26T14:01:56;0.10;;;0.10;;
9643;SDS011;4860;50.900;4.720;2023-04-26T14:04:22;0.10;;;0.10;;
9643;SDS011;4860;50.900;4.720;2023-04-26T14:06:48;0.10;;;0.10;;
9643;SDS011;4860;50.900;4.720;2023-04-26T14:09:15;0.10;;;0.10;;
9643;SDS011;4860;50.900;4.720;2023-04-26T14:11:42;0.00;;;0.00;;
9643;SDS011;4860;50.900;4.720;2023-04-26T14:14:08;0.10;;;0.10;;
9643;SDS011;4860;50.900;4.720;2023-04-26T14:16:34;0.10;;;0.10;;
9643;SDS011;4860;50.900;4.720;2023-04-26T14:19:01;0.10;;;0.10;;
9643;SDS011;4860;50.900;4.720;2023-04-26T14:21:27;0.10;;;0.10;;
9643;SDS011;4860;50.900;4.720;2023-04-26T14:23:53;0.08;;;0.08;;
9643;SDS011;4860;50.900;4.720;2023-04-26T14:26:20;0.10;;;0.10;;
9643;SDS011;4860;50.900;4.720;2023-04-26T14:28:47;0.10;;;0.10;;
9643;SDS011;4860;50.900;4.720;2023-04-26T14:31:14;0.10;;;0.10;;
9643;SDS011;4860;50.900;4.720;2023-04-26T14:33:42;0.10;;;0.10;;
9643;SDS011;4860;50.900;4.720;2023-04-26T14:36:08;0.10;;;0.10;;
9643;SDS011;4860;50.900;4.720;2023-04-26T14:38:34;0.10;;;0.10;;
9643;SDS011;4860;50.900;4.720;2023-04-26T14:41:00;0.10;;;0.10;;
9643;SDS011;4860;50.900;4.720;2023-04-26T14:43:26;0.10;;;0.10;;
9643;SDS011;4860;50.900;4.720;2023-04-26T14:45:53;0.10;;;0.10;;
9643;SDS011;4860;50.900;4.720;2023-04-26T14:48:19;0.10;;;0.10;;
9643;SDS011;4860;50.900;4.720;2023-04-26T14:50:45;0.10;;;0.10;;
9643;SDS011;4860;50.900;4.720;2023-04-26T14:53:11;0.10;;;0.10;;
9643;SDS011;4860;50.900;4.720;2023-04-26T14:55:38;0.10;;;0.10;;
9643;SDS011;4860;50.900;4.720;2023-04-26T14:58:04;0.10;;;0.10;;
9643;SDS011;4860;50.900;4.720;2023-04-26T15:00:30;0.10;;;0.10;;
9643;SDS011;4860;50.900;4.720;2023-04-26T15:02:56;0.10;;;0.10;;
9643;SDS011;4860;50.900;4.720;2023-04-26T15:05:22;0.10;;;0.10;;
9643;SDS011;4860;50.900;4.720;2023-04-26T15:07:49;0.10;;;0.10;;
9643;SDS011;4860;50.900;4.720;2023-04-26T15:10:16;0.10;;;0.10;;
9643;SDS011;4860;50.900;4.720;2023-04-26T15:12:42;0.10;;;0.10;;
9643;SDS011;4860;50.900;4.720;2023-04-26T15:15:08;0.10;;;0.10;;
9643;SDS011;4860;50.900;4.720;2023-04-26T15:17:34;0.10;;;0.10;;
9643;SDS011;4860;50.900;4.720;2023-04-26T15:20:01;0.10;;;0.10;;
9643;SDS011;4860;50.900;4.720;2023-04-26T15:22:28;0.10;;;0.10;;
9643;SDS011;4860;50.900;4.720;2023-04-26T15:24:54;0.10;;;0.10;;
9643;SDS011;4860;50.900;4.720;2023-04-26T15:27:20;0.10;;;0.10;;
9643;SDS011;4860;50.900;4.720;2023-04-26T15:29:48;0.10;;;0.10;;
9643;SDS011;4860;50.900;4.720;2023-04-26T15:32:14;0.10;;;0.10;;